BG-0035 weather

CLOSED Kapitanovtsi Airstrip
Kapitanovtsi, Vidin Province, Bulgaria

Public forecast

Using degrees Celsius for public forecast. Weather courtesy of forecast.io.

METAR (pilot weather report)

Closest report is Craiova Airport, 46.3 nm (85.7 km) ENE. Retrieved 2019/08/19 19:30 UTC (0 seconds ago):

LRCV 191930Z AUTO 07005KT 9999 NCD 23/12 Q1018

TAF (pilot weather forecast)

Forecast is more than 12 hours old.

Closest forecast is Craiova Airport, 46.3 nm (85.7 km) ENE. Retrieved 2014/07/19 18:48 UTC (5 years ago):

TAF LRCV 191800Z 1918/2024 CNL